createdAt,value
2022-09-23T00:01:04.930Z,1.30
2022-09-23T00:03:33.040Z,1.27
2022-09-23T00:06:05.312Z,1.77
2022-09-23T00:08:31.770Z,1.73
2022-09-23T00:11:03.753Z,1.33
2022-09-23T00:13:30.145Z,1.23
2022-09-23T00:15:56.517Z,1.15
2022-09-23T00:18:22.949Z,1.80
2022-09-23T00:20:49.540Z,0.90
2022-09-23T00:23:15.977Z,1.90
2022-09-23T00:25:43.522Z,1.92
2022-09-23T00:28:10.066Z,1.92
2022-09-23T00:30:36.605Z,1.45
2022-09-23T00:33:03.103Z,1.15
2022-09-23T00:35:29.534Z,1.70
2022-09-23T00:37:58.544Z,1.00
2022-09-23T00:40:26.042Z,1.80
2022-09-23T00:42:52.544Z,1.92
2022-09-23T00:45:19.051Z,2.20
2022-09-23T00:47:54.055Z,1.60
2022-09-23T00:50:33.831Z,2.20
2022-09-23T00:53:04.151Z,1.80
2022-09-23T00:55:34.073Z,1.77
2022-09-23T00:58:03.387Z,1.65
2022-09-23T01:00:34.922Z,2.20
2022-09-23T01:03:01.831Z,2.33
2022-09-23T01:05:28.403Z,1.88
2022-09-23T01:07:57.490Z,1.60
2022-09-23T01:10:27.245Z,1.75
2022-09-23T01:13:12.483Z,1.92
2022-09-23T01:18:28.523Z,1.00
2022-09-23T01:21:32.132Z,1.63
2022-09-23T01:24:14.630Z,0.77
2022-09-23T01:26:58.358Z,0.80
2022-09-23T01:29:43.221Z,1.65
2022-09-23T01:32:18.948Z,2.13
2022-09-23T01:34:55.659Z,1.85
2022-09-23T01:37:48.874Z,2.00
2022-09-23T01:40:35.342Z,1.50
2022-09-23T01:43:10.780Z,1.70
2022-09-23T01:45:43.479Z,1.60
2022-09-23T01:50:56.457Z,0.88
2022-09-23T01:53:51.086Z,1.60
2022-09-23T01:56:24.352Z,1.70
2022-09-23T01:59:03.308Z,1.13
2022-09-23T02:04:04.149Z,1.45
2022-09-23T02:06:36.567Z,1.10
2022-09-23T02:09:10.430Z,1.50
2022-09-23T02:11:37.404Z,1.42
2022-09-23T02:14:15.460Z,1.40
2022-09-23T02:16:48.040Z,1.45
2022-09-23T02:21:55.603Z,1.20
2022-09-23T02:24:32.952Z,1.23
2022-09-23T02:27:06.701Z,1.27
2022-09-23T02:29:50.146Z,1.70
2022-09-23T02:32:33.724Z,1.33
2022-09-23T02:35:18.075Z,1.00
2022-09-23T02:37:52.768Z,1.15
2022-09-23T02:40:51.861Z,0.70
2022-09-23T02:43:28.027Z,1.80
2022-09-23T02:45:58.747Z,0.60
2022-09-23T02:48:47.130Z,1.30
2022-09-23T02:51:15.929Z,1.35
2022-09-23T02:53:43.317Z,1.25
2022-09-23T02:56:19.534Z,0.82
2022-09-23T02:58:51.349Z,0.98
2022-09-23T03:01:37.305Z,1.30
2022-09-23T03:04:13.971Z,0.73
2022-09-23T03:06:50.849Z,1.10
2022-09-23T03:09:25.189Z,1.17
2022-09-23T03:11:58.515Z,0.85
2022-09-23T03:15:02.513Z,1.10
2022-09-23T03:17:37.702Z,1.10
2022-09-23T03:20:11.823Z,1.50
2022-09-23T03:22:44.085Z,1.10
2022-09-23T03:25:14.194Z,1.00
2022-09-23T03:27:42.407Z,1.23
2022-09-23T03:30:10.420Z,1.25
2022-09-23T03:32:39.641Z,0.90
2022-09-23T03:35:06.595Z,1.17
2022-09-23T03:37:41.114Z,1.55
2022-09-23T03:40:12.552Z,0.90
2022-09-23T03:42:39.735Z,0.90
2022-09-23T03:45:13.108Z,0.70
2022-09-23T03:47:39.886Z,1.05
2022-09-23T03:50:06.776Z,1.38
2022-09-23T03:52:33.210Z,1.52
2022-09-23T03:54:59.689Z,1.40
2022-09-23T03:57:28.110Z,1.75
2022-09-23T03:59:54.539Z,1.50
2022-09-23T04:02:22.666Z,0.70
2022-09-23T04:04:49.166Z,1.00
2022-09-23T04:07:18.528Z,1.10
2022-09-23T04:09:44.990Z,0.82
2022-09-23T04:12:16.039Z,1.00
2022-09-23T04:14:48.172Z,1.33
2022-09-23T04:17:14.856Z,1.50
2022-09-23T04:19:41.347Z,1.10
2022-09-23T04:22:08.491Z,0.80
2022-09-23T04:24:35.028Z,1.13
2022-09-23T04:27:01.437Z,0.90
2022-09-23T04:29:27.898Z,1.20
2022-09-23T04:31:54.397Z,1.17
2022-09-23T04:34:21.107Z,0.80
2022-09-23T04:36:50.545Z,0.65
2022-09-23T04:39:17.658Z,1.40
2022-09-23T04:41:44.977Z,1.40
2022-09-23T04:44:12.505Z,0.82
2022-09-23T04:46:43.866Z,1.90
2022-09-23T04:49:10.663Z,1.35
2022-09-23T04:51:37.167Z,1.30
2022-09-23T04:54:16.560Z,1.35
2022-09-23T04:56:43.117Z,1.70
2022-09-23T04:59:09.492Z,1.60
2022-09-23T05:04:05.758Z,1.40
2022-09-23T05:06:34.478Z,1.02
2022-09-23T05:09:03.638Z,1.30
2022-09-23T05:11:33.945Z,1.70
2022-09-23T05:14:00.650Z,1.80
2022-09-23T05:16:27.404Z,1.10
2022-09-23T05:18:54.469Z,2.58
2022-09-23T05:21:22.908Z,2.60
2022-09-23T05:23:54.975Z,2.50
2022-09-23T05:26:22.799Z,2.80
2022-09-23T05:28:49.185Z,2.50
2022-09-23T05:31:23.398Z,1.80
2022-09-23T05:34:11.887Z,2.88
2022-09-23T05:36:41.103Z,2.25
2022-09-23T05:39:08.457Z,2.72
2022-09-23T05:41:35.838Z,2.30
2022-09-23T05:44:03.170Z,2.65
2022-09-23T05:46:30.684Z,2.38
2022-09-23T05:49:02.144Z,1.70
2022-09-23T05:51:31.358Z,1.52
2022-09-23T05:53:58.869Z,1.55
2022-09-23T05:56:26.822Z,1.30
2022-09-23T05:58:54.705Z,1.40
2022-09-23T06:01:24.902Z,1.45
2022-09-23T06:03:52.388Z,1.02
2022-09-23T06:06:20.696Z,0.65
2022-09-23T06:08:47.824Z,0.80
2022-09-23T06:11:20.011Z,0.50
2022-09-23T06:13:46.402Z,0.63
2022-09-23T06:16:14.906Z,0.63
2022-09-23T06:18:50.177Z,1.10
2022-09-23T06:21:17.290Z,0.63
2022-09-23T06:23:46.371Z,0.47
2022-09-23T06:26:15.637Z,0.77
2022-09-23T06:28:43.217Z,0.90
2022-09-23T06:31:15.224Z,1.00
2022-09-23T06:33:44.555Z,0.90
2022-09-23T06:36:22.615Z,1.10
2022-09-23T06:38:57.467Z,0.60
2022-09-23T06:41:24.270Z,0.55
2022-09-23T06:43:53.150Z,1.00
2022-09-23T06:46:19.693Z,0.73
2022-09-23T06:48:49.406Z,0.73
2022-09-23T06:51:19.256Z,0.60
2022-09-23T06:53:47.349Z,0.80
2022-09-23T06:56:19.146Z,0.70
2022-09-23T06:58:46.179Z,0.50
2022-09-23T07:01:18.082Z,0.80
2022-09-23T07:03:48.529Z,0.80
2022-09-23T07:06:15.570Z,1.10
2022-09-23T07:08:47.087Z,0.82
2022-09-23T07:11:14.588Z,0.63
2022-09-23T07:13:42.370Z,0.88
2022-09-23T07:16:10.832Z,0.85
2022-09-23T07:18:38.156Z,0.90
2022-09-23T07:21:06.938Z,0.57
2022-09-23T07:23:36.279Z,1.13
2022-09-23T07:26:04.075Z,1.40
2022-09-23T07:28:30.764Z,1.00
2022-09-23T07:31:00.571Z,0.80
2022-09-23T07:33:33.080Z,1.50
2022-09-23T07:38:30.075Z,0.82
2022-09-23T07:41:08.836Z,0.80
2022-09-23T07:43:35.314Z,1.48
2022-09-23T07:46:08.561Z,2.10
2022-09-23T07:48:37.314Z,0.93
2022-09-23T07:51:11.611Z,1.25
2022-09-23T07:53:38.315Z,1.23
2022-09-23T07:56:08.120Z,1.08
2022-09-23T07:58:35.284Z,1.50
2022-09-23T08:01:10.235Z,1.25
2022-09-23T08:03:37.532Z,1.20
2022-09-23T08:06:12.372Z,1.52
2022-09-23T08:08:43.356Z,1.38
2022-09-23T08:11:12.495Z,0.80
2022-09-23T08:13:39.063Z,0.93
2022-09-23T08:16:06.439Z,1.20
2022-09-23T08:18:33.262Z,1.20
2022-09-23T08:21:00.231Z,1.27
2022-09-23T08:23:26.741Z,0.82
2022-09-23T08:26:03.822Z,0.73
2022-09-23T08:28:31.027Z,0.88
2022-09-23T08:30:57.503Z,0.80
2022-09-23T08:33:24.422Z,0.93
2022-09-23T08:35:52.101Z,1.25
2022-09-23T08:38:19.308Z,0.80
2022-09-23T08:40:48.746Z,0.88
2022-09-23T08:43:26.601Z,0.80
2022-09-23T08:45:54.771Z,0.65
2022-09-23T08:48:29.806Z,0.82
2022-09-23T08:51:05.943Z,1.35
2022-09-23T08:53:35.538Z,1.05
2022-09-23T08:56:07.995Z,0.50
2022-09-23T08:59:11.835Z,0.68
2022-09-23T09:04:23.563Z,0.32
2022-09-23T09:06:54.273Z,0.98
2022-09-23T09:09:41.721Z,1.00
2022-09-23T09:12:14.091Z,0.77
2022-09-23T09:17:17.929Z,0.90
2022-09-23T09:19:55.274Z,0.80
2022-09-23T09:22:41.456Z,0.60
2022-09-23T09:25:36.409Z,0.70
2022-09-23T09:28:11.438Z,0.50
2022-09-23T09:30:38.416Z,0.57
2022-09-23T09:33:13.612Z,0.90
2022-09-23T09:36:01.953Z,0.50
2022-09-23T09:38:28.540Z,0.70
2022-09-23T09:40:55.761Z,1.00
2022-09-23T09:43:25.024Z,0.70
2022-09-23T09:46:06.607Z,1.45
2022-09-23T09:48:38.605Z,1.13
2022-09-23T09:51:22.969Z,0.90
2022-09-23T09:53:52.506Z,0.88
2022-09-23T09:56:24.035Z,0.80
2022-09-23T09:58:52.788Z,0.63
2022-09-23T10:01:31.345Z,0.95
2022-09-23T10:04:00.411Z,1.00
2022-09-23T10:06:28.943Z,1.30
2022-09-23T10:08:59.804Z,1.40
2022-09-23T10:11:26.223Z,1.52
2022-09-23T10:14:13.950Z,2.00
2022-09-23T10:16:41.948Z,1.20
2022-09-23T10:19:13.841Z,1.58
2022-09-23T10:21:42.632Z,1.38
2022-09-23T10:24:20.864Z,0.90
2022-09-23T10:27:07.640Z,1.20
2022-09-23T10:29:49.211Z,1.27
2022-09-23T10:32:26.327Z,1.42
2022-09-23T10:35:13.872Z,1.65
2022-09-23T10:37:52.404Z,1.30
2022-09-23T10:43:45.581Z,1.30
2022-09-23T10:46:39.754Z,0.85
2022-09-23T10:49:35.576Z,1.20
2022-09-23T10:52:32.010Z,1.48
2022-09-23T10:55:26.006Z,1.05
2022-09-23T10:58:23.380Z,1.70
2022-09-23T11:03:58.247Z,0.90
2022-09-23T11:06:55.834Z,0.98
2022-09-23T11:09:48.507Z,1.30
2022-09-23T11:12:31.169Z,1.20
2022-09-23T11:15:07.542Z,0.80
2022-09-23T11:18:02.745Z,0.93
2022-09-23T11:20:31.864Z,1.30
2022-09-23T11:23:17.051Z,0.82
2022-09-23T11:25:50.535Z,1.38
2022-09-23T11:28:53.847Z,1.60
2022-09-23T11:31:59.390Z,0.98
2022-09-23T11:34:42.977Z,1.20
2022-09-23T11:37:13.989Z,1.60
2022-09-23T11:39:45.944Z,1.17
2022-09-23T11:42:27.786Z,1.13
2022-09-23T11:44:58.944Z,1.23
2022-09-23T11:47:39.796Z,1.45
2022-09-23T11:50:25.721Z,1.20
2022-09-23T11:52:58.829Z,1.05
2022-09-23T11:55:31.417Z,1.05
2022-09-23T11:58:05.161Z,1.48
2022-09-23T12:00:36.426Z,1.27
2022-09-23T12:03:17.981Z,1.45
2022-09-23T12:06:00.104Z,1.60
2022-09-23T12:08:34.379Z,1.63
2022-09-23T12:11:16.080Z,0.85
2022-09-23T12:13:49.650Z,0.82
2022-09-23T12:16:25.168Z,1.20
2022-09-23T12:19:03.248Z,1.33
2022-09-23T12:21:56.512Z,1.30
2022-09-23T12:24:48.139Z,1.25
2022-09-23T12:27:38.081Z,1.45
2022-09-23T12:30:12.737Z,1.90
2022-09-23T12:32:39.802Z,1.75
2022-09-23T12:35:08.758Z,1.52
2022-09-23T12:37:37.990Z,1.52
2022-09-23T12:40:14.096Z,1.40
2022-09-23T12:42:47.178Z,1.60
2022-09-23T12:45:19.216Z,1.48
2022-09-23T12:50:50.872Z,1.70
2022-09-23T12:53:35.681Z,1.85
2022-09-23T12:56:26.990Z,1.60
2022-09-23T12:59:22.731Z,1.45
2022-09-23T13:01:52.309Z,0.98
2022-09-23T13:05:03.005Z,1.67
2022-09-23T13:07:33.900Z,1.15
2022-09-23T13:10:09.051Z,1.50
2022-09-23T13:12:39.113Z,1.17
2022-09-23T13:15:15.370Z,1.88
2022-09-23T13:17:41.762Z,1.65
2022-09-23T13:20:20.591Z,1.70
2022-09-23T13:22:49.848Z,1.50
2022-09-23T13:25:20.545Z,1.70
2022-09-23T13:27:50.058Z,1.80
2022-09-23T13:30:26.118Z,1.35
2022-09-23T13:33:11.338Z,2.35
2022-09-23T13:38:23.499Z,1.02
2022-09-23T13:40:50.877Z,2.25
2022-09-23T13:43:24.882Z,1.63
2022-09-23T13:45:54.734Z,2.42
2022-09-23T13:48:26.997Z,1.10
2022-09-23T13:50:53.522Z,1.90
2022-09-23T13:53:30.291Z,1.38
2022-09-23T13:56:14.436Z,1.02
2022-09-23T13:58:49.502Z,1.17
2022-09-23T14:01:30.890Z,2.40
2022-09-23T14:03:57.351Z,1.55
2022-09-23T14:06:27.203Z,1.55
2022-09-23T14:08:54.212Z,1.40
2022-09-23T14:11:23.223Z,1.02
2022-09-23T14:13:54.892Z,1.70
2022-09-23T14:16:26.747Z,2.10
2022-09-23T14:18:56.682Z,1.52
2022-09-23T14:21:36.970Z,1.65
2022-09-23T14:24:15.409Z,1.92
2022-09-23T14:26:45.325Z,1.00
2022-09-23T14:29:24.433Z,2.05
2022-09-23T14:32:00.629Z,2.97
2022-09-23T14:34:43.891Z,2.05
2022-09-23T14:37:41.037Z,2.10
2022-09-23T14:40:24.700Z,2.10
2022-09-23T14:42:58.216Z,1.48
2022-09-23T14:45:27.724Z,1.90
2022-09-23T14:48:01.253Z,2.42
2022-09-23T14:50:36.901Z,2.03
2022-09-23T14:53:04.343Z,2.53
2022-09-23T14:55:31.583Z,1.40
2022-09-23T14:58:05.382Z,2.10
2022-09-23T15:00:31.907Z,2.25
2022-09-23T15:02:59.819Z,0.85
2022-09-23T15:05:47.750Z,2.35
2022-09-23T15:08:19.266Z,2.72
2022-09-23T15:10:46.131Z,2.42
2022-09-23T15:13:18.650Z,2.42
2022-09-23T15:15:45.257Z,2.22
2022-09-23T15:18:18.780Z,1.27
2022-09-23T15:20:52.188Z,1.77
2022-09-23T15:23:57.353Z,2.03
2022-09-23T15:26:44.388Z,2.28
2022-09-23T15:29:10.994Z,1.10
2022-09-23T15:31:37.663Z,1.67
2022-09-23T15:34:05.504Z,1.80
2022-09-23T15:36:32.140Z,2.90
2022-09-23T15:39:03.862Z,1.77
2022-09-23T15:41:32.950Z,1.15
2022-09-23T15:44:07.025Z,1.00
2022-09-23T15:46:34.065Z,1.75
2022-09-23T15:49:09.305Z,1.40
2022-09-23T15:51:37.374Z,1.10
2022-09-23T15:54:13.131Z,0.98
2022-09-23T15:56:39.861Z,2.90
2022-09-23T15:59:06.651Z,2.72
2022-09-23T16:01:36.095Z,2.00
2022-09-23T16:04:04.402Z,1.42
2022-09-23T16:06:31.754Z,1.60
2022-09-23T16:08:58.480Z,2.00
2022-09-23T16:11:47.280Z,1.52
2022-09-23T16:14:15.718Z,2.15
2022-09-23T16:16:44.790Z,2.55
2022-09-23T16:19:12.318Z,1.80
2022-09-23T16:21:40.882Z,1.00
2022-09-23T16:24:18.227Z,1.83
2022-09-23T16:26:46.495Z,1.05
2022-09-23T16:29:13.547Z,0.80
2022-09-23T16:31:43.069Z,2.40
2022-09-23T16:34:11.854Z,1.13
2022-09-23T16:36:41.019Z,1.80
2022-09-23T16:39:10.718Z,1.20
2022-09-23T16:41:37.270Z,1.60
2022-09-23T16:44:06.161Z,1.67
2022-09-23T16:46:36.411Z,1.58
2022-09-23T16:49:03.327Z,1.55
2022-09-23T16:51:38.273Z,1.33
2022-09-23T16:54:10.397Z,1.50
2022-09-23T16:57:43.303Z,0.52
2022-09-23T17:00:33.864Z,1.90
2022-09-23T17:03:18.870Z,2.05
2022-09-23T17:05:46.687Z,1.50
2022-09-23T17:08:20.206Z,2.08
2022-09-23T17:10:55.268Z,1.85
2022-09-23T17:13:21.674Z,0.90
2022-09-23T17:15:51.587Z,2.03
2022-09-23T17:18:19.622Z,2.20
2022-09-23T17:20:59.841Z,1.00
2022-09-23T17:23:26.922Z,1.10
2022-09-23T17:25:53.862Z,0.73
2022-09-23T17:28:20.979Z,1.80
2022-09-23T17:30:47.408Z,1.75
2022-09-23T17:33:13.869Z,1.23
2022-09-23T17:35:40.889Z,2.22
2022-09-23T17:38:07.329Z,1.60
2022-09-23T17:40:35.761Z,1.48
2022-09-23T17:43:02.306Z,0.80
2022-09-23T17:45:29.427Z,1.90
2022-09-23T17:47:55.881Z,0.70
2022-09-23T17:50:22.413Z,1.95
2022-09-23T17:52:48.947Z,1.80
2022-09-23T17:55:16.713Z,1.88
2022-09-23T17:57:43.167Z,1.80
2022-09-23T18:00:10.417Z,1.58
2022-09-23T18:02:36.867Z,2.25
2022-09-23T18:05:03.342Z,0.93
2022-09-23T18:07:31.854Z,2.53
2022-09-23T18:09:58.319Z,2.75
2022-09-23T18:12:34.735Z,2.65
2022-09-23T18:15:01.215Z,2.30
2022-09-23T18:17:27.653Z,2.20
2022-09-23T18:19:54.017Z,1.20
2022-09-23T18:22:20.394Z,2.13
2022-09-23T18:24:46.779Z,2.85
2022-09-23T18:27:13.179Z,1.38
2022-09-23T18:29:39.582Z,1.65
2022-09-23T18:32:07.572Z,2.72
2022-09-23T18:34:36.921Z,1.17
2022-09-23T18:37:06.358Z,2.10
2022-09-23T18:39:41.356Z,2.15
2022-09-23T18:42:07.756Z,2.00
2022-09-23T18:44:34.264Z,1.60
2022-09-23T18:47:00.671Z,2.13
2022-09-23T18:49:45.442Z,2.13
2022-09-23T18:52:11.862Z,1.30
2022-09-23T18:54:38.259Z,2.42
2022-09-23T18:57:05.195Z,1.85
2022-09-23T18:59:31.790Z,1.42
2022-09-23T19:01:58.394Z,1.67
2022-09-23T19:04:26.296Z,1.25
2022-09-23T19:06:54.684Z,2.13
2022-09-23T19:09:21.146Z,1.13
2022-09-23T19:11:51.573Z,1.73
2022-09-23T19:14:17.983Z,2.28
2022-09-23T19:16:44.394Z,1.02
2022-09-23T19:19:10.846Z,1.20
2022-09-23T19:21:37.271Z,3.05
2022-09-23T19:24:06.023Z,1.40
2022-09-23T19:26:38.345Z,2.40
2022-09-23T19:29:07.996Z,3.08
2022-09-23T19:31:40.009Z,1.50
2022-09-23T19:34:11.048Z,1.30
2022-09-23T19:36:40.243Z,2.97
2022-09-23T19:39:09.683Z,1.52
2022-09-23T19:41:36.090Z,1.60
2022-09-23T19:44:03.341Z,2.70
2022-09-23T19:46:31.165Z,3.15
2022-09-23T19:48:58.146Z,2.60
2022-09-23T19:51:24.638Z,1.70
2022-09-23T19:53:51.090Z,2.00
2022-09-23T19:56:17.947Z,1.77
2022-09-23T19:58:47.253Z,2.75
2022-09-23T20:01:16.916Z,2.45
2022-09-23T20:03:44.628Z,2.33
2022-09-23T20:06:11.115Z,2.67
2022-09-23T20:08:38.501Z,2.53
2022-09-23T20:11:13.985Z,1.40
2022-09-23T20:13:42.595Z,3.22
2022-09-23T20:16:11.851Z,3.10
2022-09-23T20:18:38.840Z,2.30
2022-09-23T20:21:06.281Z,1.50
2022-09-23T20:23:32.904Z,1.73
2022-09-23T20:26:19.448Z,2.45
2022-09-23T20:28:46.926Z,3.13
2022-09-23T20:31:14.041Z,1.85
2022-09-23T20:33:41.531Z,1.65
2022-09-23T20:36:13.162Z,3.88
2022-09-23T20:38:40.501Z,3.35
2022-09-23T20:41:07.459Z,2.30
2022-09-23T20:43:34.546Z,1.95
2022-09-23T20:46:03.455Z,3.05
2022-09-23T20:48:30.594Z,2.65
2022-09-23T20:51:04.640Z,3.03
2022-09-23T20:53:32.765Z,1.33
2022-09-23T20:55:59.842Z,3.35
2022-09-23T20:58:30.668Z,3.65
2022-09-23T21:01:04.443Z,3.60
2022-09-23T21:03:31.846Z,4.35
2022-09-23T21:06:04.591Z,2.92
2022-09-23T21:08:31.839Z,4.40
2022-09-23T21:10:59.810Z,3.40
2022-09-23T21:13:26.263Z,3.92
2022-09-23T21:15:52.802Z,3.50
2022-09-23T21:18:22.419Z,2.00
2022-09-23T21:20:59.692Z,1.98
2022-09-23T21:23:28.415Z,3.40
2022-09-23T21:26:12.086Z,3.25
2022-09-23T21:28:43.486Z,2.38
2022-09-23T21:31:12.317Z,2.65
2022-09-23T21:33:38.909Z,3.42
2022-09-23T21:36:07.250Z,3.10
2022-09-23T21:38:35.903Z,3.05
2022-09-23T21:41:06.972Z,2.20
2022-09-23T21:43:35.471Z,1.85
2022-09-23T21:46:04.302Z,2.75
2022-09-23T21:48:35.474Z,3.10
2022-09-23T21:51:05.621Z,2.50
2022-09-23T21:53:36.818Z,1.38
2022-09-23T21:56:07.806Z,2.50
2022-09-23T21:58:38.383Z,1.50
2022-09-23T22:01:13.913Z,2.20
2022-09-23T22:03:43.562Z,1.08
2022-09-23T22:06:15.292Z,1.42
2022-09-23T22:08:43.175Z,1.10
2022-09-23T22:11:32.468Z,1.20
2022-09-23T22:14:00.884Z,1.20
2022-09-23T22:16:32.935Z,1.40
2022-09-23T22:19:01.151Z,0.80
2022-09-23T22:21:29.404Z,1.27
2022-09-23T22:24:03.599Z,1.23
2022-09-23T22:26:35.498Z,1.50
2022-09-23T22:29:20.958Z,1.23
2022-09-23T22:32:05.904Z,1.23
2022-09-23T22:37:36.463Z,1.55
2022-09-23T22:40:09.518Z,1.60
2022-09-23T22:42:36.517Z,1.00
2022-09-23T22:45:05.815Z,2.17
2022-09-23T22:47:37.585Z,1.50
2022-09-23T22:50:08.607Z,1.52
2022-09-23T22:52:37.875Z,1.10
2022-09-23T22:55:07.930Z,1.50
2022-09-23T22:57:34.574Z,1.50
2022-09-23T23:00:01.158Z,1.73
2022-09-23T23:02:28.179Z,1.60
2022-09-23T23:04:57.123Z,1.40
2022-09-23T23:07:24.664Z,2.17
2022-09-23T23:09:52.099Z,0.93
2022-09-23T23:12:20.150Z,1.27
2022-09-23T23:14:50.671Z,0.93
2022-09-23T23:17:18.612Z,1.20
2022-09-23T23:19:45.085Z,0.98
2022-09-23T23:22:11.772Z,1.15
2022-09-23T23:24:38.267Z,1.17
2022-09-23T23:27:04.818Z,1.00
2022-09-23T23:29:31.285Z,1.00
2022-09-23T23:31:57.718Z,2.13
2022-09-23T23:34:36.187Z,1.73
2022-09-23T23:37:02.580Z,2.20
2022-09-23T23:39:32.796Z,2.03
2022-09-23T23:42:04.151Z,2.60
2022-09-23T23:44:34.304Z,1.77
2022-09-23T23:47:01.644Z,1.35
2022-09-23T23:49:28.688Z,1.92
2022-09-23T23:52:14.430Z,2.00
2022-09-23T23:54:40.861Z,1.50
2022-09-23T23:57:07.651Z,1.40
2022-09-23T23:59:34.789Z,1.52
